createdAt,value
2022-08-10T00:04:54.137Z,19.50
2022-08-10T00:09:57.392Z,19.50
2022-08-10T00:15:01.922Z,19.40
2022-08-10T00:20:08.595Z,19.40
2022-08-10T00:25:12.352Z,19.30
2022-08-10T00:30:17.156Z,19.30
2022-08-10T00:35:20.656Z,19.30
2022-08-10T00:40:37.558Z,19.20
2022-08-10T00:45:42.641Z,19.10
2022-08-10T00:50:46.585Z,19.10
2022-08-10T00:57:05.138Z,19.00
2022-08-10T01:02:09.841Z,18.90
2022-08-10T01:06:48.927Z,18.90
2022-08-10T01:12:38.515Z,18.80
2022-08-10T01:17:49.679Z,18.70
2022-08-10T01:23:32.034Z,18.80
2022-08-10T01:28:46.560Z,18.80
2022-08-10T01:34:01.983Z,18.70
2022-08-10T01:39:07.538Z,18.60
2022-08-10T01:44:13.445Z,18.60
2022-08-10T01:49:21.384Z,18.50
2022-08-10T01:54:26.749Z,18.50
2022-08-10T01:59:34.413Z,18.50
2022-08-10T02:04:42.725Z,18.30
2022-08-10T02:09:50.405Z,18.30
2022-08-10T02:14:57.785Z,18.40
2022-08-10T02:20:07.767Z,18.20
2022-08-10T02:25:40.060Z,18.30
2022-08-10T02:30:38.180Z,18.20
2022-08-10T02:35:54.690Z,18.10
2022-08-10T02:45:12.217Z,18.10
2022-08-10T02:46:43.159Z,18.20
2022-08-10T02:52:06.695Z,18.10
2022-08-10T02:57:18.751Z,18.10
2022-08-10T03:02:28.922Z,18.10
2022-08-10T03:07:44.505Z,18.00
2022-08-10T03:12:53.237Z,18.00
2022-08-10T03:17:59.148Z,18.00
2022-08-10T03:23:06.153Z,18.00
2022-08-10T03:28:10.362Z,18.00
2022-08-10T03:33:23.461Z,17.90
2022-08-10T03:38:28.398Z,17.90
2022-08-10T03:43:32.636Z,18.00
2022-08-10T03:48:48.982Z,18.00
2022-08-10T03:54:05.524Z,18.00
2022-08-10T03:59:12.842Z,17.80
2022-08-10T04:04:20.863Z,17.90
2022-08-10T04:09:55.588Z,17.80
2022-08-10T04:14:56.592Z,17.90
2022-08-10T04:20:01.998Z,18.00
2022-08-10T04:25:08.444Z,17.90
2022-08-10T04:30:12.807Z,17.90
2022-08-10T04:35:18.410Z,17.90
2022-08-10T04:40:29.016Z,17.90
2022-08-10T04:45:49.284Z,17.90
2022-08-10T04:50:54.761Z,18.00
2022-08-10T04:55:59.754Z,18.20
2022-08-10T05:01:03.563Z,18.40
2022-08-10T05:06:07.606Z,18.50
2022-08-10T05:11:12.119Z,18.80
2022-08-10T05:16:31.777Z,19.10
2022-08-10T05:22:02.997Z,19.10
2022-08-10T05:27:09.961Z,19.20
2022-08-10T05:32:13.999Z,19.30
2022-08-10T05:38:09.314Z,19.40
2022-08-10T05:42:42.505Z,19.30
2022-08-10T05:48:54.687Z,19.60
2022-08-10T05:53:59.480Z,19.70
2022-08-10T05:58:34.019Z,19.60
2022-08-10T06:03:44.611Z,19.70
2022-08-10T06:08:50.436Z,19.90
2022-08-10T06:14:16.495Z,20.00
2022-08-10T06:19:21.966Z,20.00
2022-08-10T06:24:30.447Z,20.20
2022-08-10T06:29:38.004Z,20.30
2022-08-10T06:34:44.237Z,20.30
2022-08-10T06:39:47.602Z,20.50
2022-08-10T06:44:57.840Z,20.50
2022-08-10T06:50:08.802Z,20.90
